createdAt,value
2018-12-21T00:02:26.897Z,7.11
2018-12-21T00:04:56.051Z,7.05
2018-12-21T00:07:25.111Z,7.01
2018-12-21T00:09:54.048Z,7.02
2018-12-21T00:12:22.968Z,7.09
2018-12-21T00:14:51.903Z,7.04
2018-12-21T00:17:20.827Z,7.03
2018-12-21T00:19:49.695Z,7.11
2018-12-21T00:22:18.719Z,7.06
2018-12-21T00:24:47.611Z,7.09
2018-12-21T00:27:17.351Z,7.07
2018-12-21T00:29:46.249Z,7.09
2018-12-21T00:32:20.904Z,7.14
2018-12-21T00:34:55.437Z,7.20
2018-12-21T00:37:29.909Z,7.12
2018-12-21T00:40:05.031Z,7.12
2018-12-21T00:42:39.488Z,7.07
2018-12-21T00:45:16.324Z,7.11
2018-12-21T00:47:45.377Z,7.15
2018-12-21T00:50:14.230Z,7.10
2018-12-21T00:52:43.392Z,7.01
2018-12-21T00:55:12.465Z,7.16
2018-12-21T00:57:41.372Z,7.14
2018-12-21T01:00:13.868Z,7.16
2018-12-21T01:02:42.810Z,7.16
2018-12-21T01:05:11.843Z,7.16
2018-12-21T01:07:41.350Z,7.21
2018-12-21T01:10:10.756Z,7.16
2018-12-21T01:12:39.677Z,7.17
2018-12-21T01:15:09.082Z,7.08
2018-12-21T01:17:38.884Z,7.06
2018-12-21T01:20:08.706Z,6.99
2018-12-21T01:22:37.745Z,7.02
2018-12-21T01:25:07.112Z,6.92
2018-12-21T01:27:36.429Z,6.88
2018-12-21T01:30:07.036Z,7.04
2018-12-21T01:32:36.111Z,7.02
2018-12-21T01:35:05.549Z,6.89
2018-12-21T01:37:34.780Z,6.94
2018-12-21T01:40:03.987Z,6.96
2018-12-21T01:42:32.845Z,6.94
2018-12-21T01:45:04.087Z,6.89
2018-12-21T01:47:33.123Z,6.98
2018-12-21T01:50:02.102Z,6.97
2018-12-21T01:52:31.637Z,6.92
2018-12-21T01:55:01.459Z,6.99
2018-12-21T01:57:30.421Z,6.99
2018-12-21T01:59:59.453Z,6.89
2018-12-21T02:02:28.413Z,6.97
2018-12-21T02:04:57.500Z,6.96
2018-12-21T02:07:26.560Z,6.94
2018-12-21T02:09:55.488Z,6.80
2018-12-21T02:12:24.447Z,6.75
2018-12-21T02:14:53.283Z,6.78
2018-12-21T02:17:22.193Z,6.86
2018-12-21T02:19:51.141Z,6.77
2018-12-21T02:22:20.229Z,6.75
2018-12-21T02:24:49.167Z,6.76
2018-12-21T02:27:18.175Z,6.82
2018-12-21T02:29:47.022Z,6.83
2018-12-21T02:32:15.961Z,6.76
2018-12-21T02:34:44.923Z,6.66
2018-12-21T02:37:15.043Z,6.59
2018-12-21T02:39:44.030Z,6.58
2018-12-21T02:42:13.204Z,6.70
2018-12-21T02:44:43.440Z,6.64
2018-12-21T02:47:12.447Z,6.65
2018-12-21T02:49:41.285Z,6.70
2018-12-21T02:52:10.228Z,6.71
2018-12-21T02:54:39.209Z,6.73
2018-12-21T02:57:08.489Z,6.79
2018-12-21T02:59:37.528Z,6.66
2018-12-21T03:02:07.230Z,6.66
2018-12-21T03:04:36.152Z,6.77
2018-12-21T03:07:05.103Z,6.75
2018-12-21T03:09:34.091Z,6.85
2018-12-21T03:12:03.091Z,6.90
2018-12-21T03:14:31.954Z,6.89
2018-12-21T03:17:00.826Z,6.80
2018-12-21T03:19:29.726Z,6.93
2018-12-21T03:21:58.707Z,6.88
2018-12-21T03:24:27.742Z,6.88
2018-12-21T03:26:56.636Z,6.91
2018-12-21T03:29:25.549Z,6.76
2018-12-21T03:31:54.553Z,6.88
2018-12-21T03:34:23.460Z,6.78
2018-12-21T03:36:52.428Z,6.83
2018-12-21T03:39:21.713Z,6.74
2018-12-21T03:41:50.968Z,6.71
2018-12-21T03:44:19.852Z,6.68
2018-12-21T03:46:49.276Z,6.79
2018-12-21T03:49:18.231Z,6.81
2018-12-21T03:51:47.037Z,6.73
2018-12-21T03:54:15.960Z,6.75
2018-12-21T03:56:44.875Z,6.64
2018-12-21T03:59:14.779Z,6.74
2018-12-21T04:01:43.828Z,6.72
2018-12-21T04:04:12.806Z,6.71
2018-12-21T04:06:41.729Z,6.74
2018-12-21T04:09:11.126Z,6.62
2018-12-21T04:11:40.424Z,6.66
2018-12-21T04:14:09.678Z,6.67
2018-12-21T04:16:38.631Z,6.69
2018-12-21T04:19:07.959Z,6.65
2018-12-21T04:21:37.293Z,6.69
2018-12-21T04:24:06.238Z,6.51
2018-12-21T04:26:36.222Z,6.69
2018-12-21T04:29:05.255Z,6.62
2018-12-21T04:31:34.225Z,6.70
2018-12-21T04:34:03.567Z,6.57
2018-12-21T04:36:32.629Z,6.62
2018-12-21T04:39:01.934Z,6.66
2018-12-21T04:41:30.921Z,6.67
2018-12-21T04:43:59.909Z,6.52
2018-12-21T04:46:29.050Z,6.59
2018-12-21T04:48:58.185Z,6.67
2018-12-21T04:51:27.203Z,6.66
2018-12-21T04:53:57.432Z,6.73
2018-12-21T04:56:26.715Z,6.72
2018-12-21T04:58:55.649Z,6.79
2018-12-21T05:01:24.785Z,6.76
2018-12-21T05:03:53.713Z,6.79
2018-12-21T05:06:23.336Z,6.86
2018-12-21T05:08:52.262Z,6.82
2018-12-21T05:14:00.611Z,6.87
2018-12-21T05:16:29.510Z,6.56
2018-12-21T05:18:58.478Z,6.60
2018-12-21T05:21:27.505Z,6.58
2018-12-21T05:23:56.712Z,6.67
2018-12-21T05:26:25.925Z,6.59
2018-12-21T05:28:55.460Z,6.67
2018-12-21T05:31:28.468Z,6.61
2018-12-21T05:33:55.237Z,6.54
2018-12-21T05:36:24.155Z,6.40
2018-12-21T05:38:54.202Z,6.60
2018-12-21T05:41:23.422Z,6.63
2018-12-21T05:43:52.336Z,6.70
2018-12-21T05:46:21.321Z,6.50
2018-12-21T05:48:50.296Z,6.51
2018-12-21T05:51:19.191Z,6.46
2018-12-21T05:53:48.179Z,6.41
2018-12-21T05:56:17.177Z,6.35
2018-12-21T05:58:46.038Z,6.33
2018-12-21T06:01:15.010Z,6.30
2018-12-21T06:03:44.168Z,6.29
2018-12-21T06:06:13.219Z,6.30
2018-12-21T06:08:42.107Z,6.36
2018-12-21T06:11:11.035Z,6.30
2018-12-21T06:13:39.970Z,6.27
2018-12-21T06:16:08.861Z,6.47
2018-12-21T06:18:38.274Z,6.32
2018-12-21T06:21:08.202Z,6.39
2018-12-21T06:23:37.120Z,6.39
2018-12-21T06:26:06.226Z,6.37
2018-12-21T06:28:35.170Z,6.32
2018-12-21T06:31:04.261Z,6.34
2018-12-21T06:33:33.238Z,6.38
2018-12-21T06:36:02.630Z,6.29
2018-12-21T06:38:31.495Z,6.32
2018-12-21T06:41:01.677Z,6.37
2018-12-21T06:43:31.015Z,6.37
2018-12-21T06:46:00.188Z,6.34
2018-12-21T06:48:29.305Z,6.30
2018-12-21T06:50:58.239Z,6.31
2018-12-21T06:53:27.159Z,6.44
2018-12-21T06:55:56.245Z,6.34
2018-12-21T06:58:26.455Z,6.42
2018-12-21T07:00:55.514Z,6.36
2018-12-21T07:03:25.563Z,6.41
2018-12-21T07:05:54.773Z,6.41
2018-12-21T07:08:23.686Z,6.42
2018-12-21T07:10:52.642Z,6.43
2018-12-21T07:13:21.477Z,6.43
2018-12-21T07:15:50.383Z,6.46
2018-12-21T07:18:19.272Z,6.51
2018-12-21T07:20:48.203Z,6.46
2018-12-21T07:23:26.901Z,6.52
2018-12-21T07:25:48.823Z,6.57
2018-12-21T07:28:17.761Z,6.53
2018-12-21T07:30:46.910Z,6.50
2018-12-21T07:33:17.357Z,6.51
2018-12-21T07:35:46.528Z,6.49
2018-12-21T07:38:15.461Z,6.46
2018-12-21T07:40:44.336Z,6.44
2018-12-21T07:43:13.249Z,6.46
2018-12-21T07:45:42.268Z,6.50
2018-12-21T07:48:11.248Z,6.50
2018-12-21T07:50:40.452Z,6.52
2018-12-21T07:53:10.150Z,6.50
2018-12-21T07:55:38.971Z,6.55
2018-12-21T07:58:07.972Z,6.51
2018-12-21T08:00:36.885Z,6.43
2018-12-21T08:03:05.966Z,6.43
2018-12-21T08:05:34.916Z,6.40
2018-12-21T08:08:03.878Z,6.42
2018-12-21T08:10:32.774Z,6.34
2018-12-21T08:13:01.686Z,6.35
2018-12-21T08:15:30.730Z,6.39
2018-12-21T08:17:59.598Z,6.38
2018-12-21T08:20:28.812Z,6.38
2018-12-21T08:22:58.076Z,6.35
2018-12-21T08:25:27.248Z,6.31
2018-12-21T08:27:56.446Z,6.39
2018-12-21T08:30:25.314Z,6.37
2018-12-21T08:32:54.491Z,6.39
2018-12-21T08:35:23.435Z,6.33
2018-12-21T08:37:52.259Z,6.30
2018-12-21T08:40:21.521Z,6.37
2018-12-21T08:42:50.394Z,6.31
2018-12-21T08:45:19.288Z,6.32
2018-12-21T08:47:48.240Z,6.32
2018-12-21T08:50:17.143Z,6.32
2018-12-21T08:52:46.014Z,6.29
2018-12-21T08:55:14.970Z,6.28
2018-12-21T08:57:43.796Z,6.31
2018-12-21T09:00:13.437Z,6.32
2018-12-21T09:02:42.582Z,6.32
2018-12-21T09:05:11.594Z,6.28
2018-12-21T09:07:40.650Z,6.28
2018-12-21T09:10:10.695Z,6.38
2018-12-21T09:12:39.910Z,6.39
2018-12-21T09:15:14.675Z,6.47
2018-12-21T09:17:43.600Z,6.44
2018-12-21T09:20:12.499Z,6.42
2018-12-21T09:22:41.486Z,6.42
2018-12-21T09:25:10.354Z,6.47
2018-12-21T09:27:39.282Z,6.50
2018-12-21T09:30:12.947Z,6.53
2018-12-21T09:32:41.986Z,6.57
2018-12-21T09:35:11.276Z,6.62
2018-12-21T09:37:40.313Z,6.56
2018-12-21T09:40:11.994Z,6.62
2018-12-21T09:42:41.060Z,6.61
2018-12-21T09:45:10.375Z,6.56
2018-12-21T09:47:39.281Z,6.57
2018-12-21T09:50:10.243Z,6.57
2018-12-21T09:52:39.179Z,6.61
2018-12-21T09:55:08.947Z,6.59
2018-12-21T09:57:37.868Z,6.62
2018-12-21T10:00:10.884Z,6.62
2018-12-21T10:02:41.578Z,6.63
2018-12-21T10:05:15.012Z,6.65
2018-12-21T10:07:43.974Z,6.70
2018-12-21T10:10:13.151Z,6.67
2018-12-21T10:12:42.056Z,6.67
2018-12-21T10:15:11.479Z,6.68
2018-12-21T10:17:41.118Z,6.75
2018-12-21T10:20:10.179Z,6.68
2018-12-21T10:22:39.078Z,6.75
2018-12-21T10:25:08.099Z,6.72
2018-12-21T10:27:37.303Z,6.77
2018-12-21T10:30:09.591Z,6.72
2018-12-21T10:32:38.754Z,6.71
2018-12-21T10:35:07.657Z,6.75
2018-12-21T10:37:36.606Z,6.74
2018-12-21T10:40:06.771Z,6.75
2018-12-21T10:42:35.874Z,6.76
2018-12-21T10:45:06.124Z,6.71
2018-12-21T10:47:35.208Z,6.73
2018-12-21T10:50:07.126Z,6.76
2018-12-21T10:52:36.056Z,6.81
2018-12-21T10:55:05.359Z,6.74
2018-12-21T10:57:34.262Z,6.73
2018-12-21T11:00:04.574Z,6.73
2018-12-21T11:02:33.534Z,6.74
2018-12-21T11:05:02.416Z,6.77
2018-12-21T11:07:31.321Z,6.79
2018-12-21T11:10:00.231Z,6.77
2018-12-21T11:12:29.108Z,6.75
2018-12-21T11:14:58.073Z,6.77
2018-12-21T11:17:26.898Z,6.76
2018-12-21T11:19:55.778Z,6.81
2018-12-21T11:22:24.967Z,6.78
2018-12-21T11:24:53.836Z,6.84
2018-12-21T11:27:23.527Z,6.84
2018-12-21T11:29:52.395Z,6.83
2018-12-21T11:32:21.358Z,6.85
2018-12-21T11:34:50.420Z,6.85
2018-12-21T11:37:19.369Z,6.87
2018-12-21T11:39:48.354Z,6.91
2018-12-21T11:42:17.273Z,6.93
2018-12-21T11:44:46.179Z,6.92
2018-12-21T11:47:15.198Z,6.94
2018-12-21T11:49:44.241Z,6.94
2018-12-21T11:52:13.231Z,6.94
2018-12-21T11:54:44.480Z,7.06
2018-12-21T11:57:14.094Z,7.03
2018-12-21T11:59:44.954Z,7.01
2018-12-21T12:02:19.547Z,7.02
2018-12-21T12:04:46.819Z,7.04
2018-12-21T12:07:16.870Z,7.04
2018-12-21T12:09:46.307Z,7.05
2018-12-21T12:12:15.295Z,7.10
2018-12-21T12:14:44.343Z,7.15
2018-12-21T12:17:13.196Z,7.07
2018-12-21T12:19:42.125Z,7.09
2018-12-21T12:22:11.068Z,7.08
2018-12-21T12:24:40.217Z,7.05
2018-12-21T12:27:09.155Z,7.09
2018-12-21T12:29:38.034Z,7.08
2018-12-21T12:32:07.251Z,7.10
2018-12-21T12:34:36.450Z,7.15
2018-12-21T12:37:05.443Z,7.10
2018-12-21T12:39:34.323Z,7.09
2018-12-21T12:42:03.786Z,7.09
2018-12-21T12:44:33.572Z,7.20
2018-12-21T12:47:02.725Z,7.18
2018-12-21T12:49:31.825Z,7.17
2018-12-21T12:52:00.882Z,7.17
2018-12-21T12:54:30.090Z,7.17
2018-12-21T12:56:59.095Z,7.21
2018-12-21T12:59:28.308Z,7.18
2018-12-21T13:01:58.481Z,7.19
2018-12-21T13:04:27.875Z,7.20
2018-12-21T13:06:56.824Z,7.27
2018-12-21T13:09:25.861Z,7.24
2018-12-21T13:11:54.781Z,7.23
2018-12-21T13:14:24.096Z,7.25
2018-12-21T13:16:53.211Z,7.27
2018-12-21T13:19:23.394Z,7.34
2018-12-21T13:21:52.534Z,7.32
2018-12-21T13:24:21.486Z,7.29
2018-12-21T13:26:50.489Z,7.33
2018-12-21T13:29:19.347Z,7.32
2018-12-21T13:31:48.288Z,7.39
2018-12-21T13:34:17.203Z,7.41
2018-12-21T13:36:46.109Z,7.46
2018-12-21T13:39:15.086Z,7.40
2018-12-21T13:41:44.066Z,7.43
2018-12-21T13:44:13.062Z,7.48
2018-12-21T13:46:42.143Z,7.48
2018-12-21T13:49:11.071Z,7.55
2018-12-21T13:51:40.617Z,7.54
2018-12-21T13:54:11.040Z,7.48
2018-12-21T13:56:39.990Z,7.46
2018-12-21T13:59:09.524Z,7.51
2018-12-21T14:01:40.009Z,7.63
2018-12-21T14:04:09.890Z,7.62
2018-12-21T14:06:39.135Z,7.58
2018-12-21T14:09:09.275Z,7.63
2018-12-21T14:11:38.767Z,7.58
2018-12-21T14:14:07.877Z,7.57
2018-12-21T14:16:37.275Z,7.62
2018-12-21T14:19:07.250Z,7.59
2018-12-21T14:21:36.901Z,7.68
2018-12-21T14:24:06.278Z,7.67
2018-12-21T14:26:35.771Z,7.73
2018-12-21T14:29:05.246Z,7.82
2018-12-21T14:31:34.252Z,7.83
2018-12-21T14:34:03.716Z,7.79
2018-12-21T14:36:33.463Z,7.84
2018-12-21T14:39:05.196Z,7.86
2018-12-21T14:41:35.170Z,7.83
2018-12-21T14:44:05.551Z,7.88
2018-12-21T14:46:34.711Z,7.91
2018-12-21T14:49:04.531Z,7.92
2018-12-21T14:51:34.180Z,7.93
2018-12-21T14:54:04.746Z,8.10
2018-12-21T14:56:34.327Z,8.04
2018-12-21T14:59:03.707Z,8.16
2018-12-21T15:01:34.859Z,8.18
2018-12-21T15:04:03.768Z,8.27
2018-12-21T15:06:33.012Z,8.31
2018-12-21T15:09:03.732Z,8.31
2018-12-21T15:11:32.667Z,8.43
2018-12-21T15:14:01.533Z,8.46
2018-12-21T15:16:30.425Z,8.53
2018-12-21T15:18:59.759Z,8.67
2018-12-21T15:21:28.647Z,8.75
2018-12-21T15:23:57.813Z,8.85
2018-12-21T15:26:26.792Z,8.93
2018-12-21T15:28:55.701Z,8.98
2018-12-21T15:31:24.593Z,9.03
2018-12-21T15:33:53.608Z,9.13
2018-12-21T15:36:24.122Z,9.30
2018-12-21T15:38:52.991Z,9.44
2018-12-21T15:41:22.015Z,9.58
2018-12-21T15:43:51.019Z,9.75
2018-12-21T15:46:19.930Z,10.00
2018-12-21T15:48:49.294Z,10.07
2018-12-21T15:51:18.305Z,10.32
2018-12-21T15:53:47.596Z,10.31
2018-12-21T15:56:17.275Z,10.40
2018-12-21T15:58:46.364Z,10.44
2018-12-21T16:01:15.324Z,10.49
2018-12-21T16:03:44.544Z,10.46
2018-12-21T16:06:13.597Z,10.49
2018-12-21T16:08:43.099Z,10.50
2018-12-21T16:11:11.981Z,10.57
2018-12-21T16:13:40.926Z,10.57
2018-12-21T16:16:09.868Z,10.53
2018-12-21T16:18:38.894Z,10.57
2018-12-21T16:21:07.979Z,10.69
2018-12-21T16:23:36.881Z,10.71
2018-12-21T16:26:05.991Z,10.69
2018-12-21T16:28:34.897Z,10.71
2018-12-21T16:31:04.442Z,10.74
2018-12-21T16:33:33.497Z,10.80
2018-12-21T16:36:03.649Z,10.81
2018-12-21T16:38:33.017Z,10.84
2018-12-21T16:41:02.246Z,10.90
2018-12-21T16:43:31.165Z,10.87
2018-12-21T16:46:01.571Z,10.91
2018-12-21T16:48:30.550Z,10.95
2018-12-21T16:51:00.158Z,10.94
2018-12-21T16:53:29.067Z,10.93
2018-12-21T16:55:57.973Z,10.96
2018-12-21T16:58:26.948Z,10.96
2018-12-21T17:00:55.823Z,10.91
2018-12-21T17:03:24.734Z,10.82
2018-12-21T17:05:53.816Z,10.88
2018-12-21T17:08:23.090Z,10.80
2018-12-21T17:10:52.148Z,10.70
2018-12-21T17:13:21.274Z,10.70
2018-12-21T17:18:54.343Z,10.65
2018-12-21T17:21:23.316Z,10.62
2018-12-21T17:23:52.682Z,10.63
2018-12-21T17:26:21.812Z,10.64
2018-12-21T17:28:50.751Z,10.60
2018-12-21T17:31:20.386Z,10.60
2018-12-21T17:33:49.914Z,10.55
2018-12-21T17:36:18.801Z,10.51
2018-12-21T17:38:47.792Z,10.45
2018-12-21T17:41:16.714Z,10.45
2018-12-21T17:43:45.635Z,10.42
2018-12-21T17:46:14.579Z,10.45
2018-12-21T17:48:43.680Z,10.44
2018-12-21T17:51:12.692Z,10.35
2018-12-21T17:53:41.633Z,10.29
2018-12-21T17:56:10.512Z,10.27
2018-12-21T17:58:39.781Z,10.26
2018-12-21T18:01:08.794Z,10.21
2018-12-21T18:03:48.149Z,10.23
2018-12-21T18:06:16.975Z,10.17
2018-12-21T18:08:46.126Z,10.18
2018-12-21T18:11:14.996Z,10.22
2018-12-21T18:13:43.983Z,10.26
2018-12-21T18:16:12.887Z,10.26
2018-12-21T18:18:42.380Z,10.18
2018-12-21T18:21:11.337Z,10.11
2018-12-21T18:23:41.171Z,10.10
2018-12-21T18:26:10.304Z,10.10
2018-12-21T18:28:39.235Z,10.05
2018-12-21T18:31:19.543Z,9.95
2018-12-21T18:33:48.456Z,9.95
2018-12-21T18:36:17.832Z,9.91
2018-12-21T18:38:47.027Z,9.91
2018-12-21T18:41:15.969Z,9.86
2018-12-21T18:43:44.906Z,9.84
2018-12-21T18:46:13.837Z,9.76
2018-12-21T18:48:42.967Z,9.74
2018-12-21T18:51:12.152Z,9.76
2018-12-21T18:53:41.435Z,9.74
2018-12-21T18:56:18.019Z,9.77
2018-12-21T18:58:49.243Z,9.82
2018-12-21T19:01:17.961Z,9.81
2018-12-21T19:03:46.944Z,9.81
2018-12-21T19:06:15.890Z,9.81
2018-12-21T19:08:44.838Z,9.84
2018-12-21T19:11:13.911Z,9.89
2018-12-21T19:13:42.818Z,9.82
2018-12-21T19:16:11.807Z,9.78
2018-12-21T19:18:40.739Z,9.81
2018-12-21T19:21:10.041Z,9.83
2018-12-21T19:23:39.036Z,9.82
2018-12-21T19:26:08.026Z,9.86
2018-12-21T19:28:37.083Z,9.84
2018-12-21T19:31:05.979Z,9.79
2018-12-21T19:33:34.951Z,9.73
2018-12-21T19:36:03.987Z,9.77
2018-12-21T19:38:32.959Z,9.77
2018-12-21T19:41:01.992Z,9.74
2018-12-21T19:43:31.154Z,9.72
2018-12-21T19:46:01.178Z,9.72
2018-12-21T19:48:30.359Z,9.71
2018-12-21T19:50:59.342Z,9.73
2018-12-21T19:53:28.274Z,9.73
2018-12-21T19:56:07.510Z,9.71
2018-12-21T19:58:36.468Z,9.65
2018-12-21T20:01:05.563Z,9.62
2018-12-21T20:03:34.473Z,9.55
2018-12-21T20:06:03.570Z,9.60
2018-12-21T20:08:32.517Z,9.59
2018-12-21T20:11:01.569Z,9.56
2018-12-21T20:13:30.422Z,9.49
2018-12-21T20:15:59.400Z,9.45
2018-12-21T20:18:28.522Z,9.46
2018-12-21T20:20:57.467Z,9.42
2018-12-21T20:23:26.733Z,9.34
2018-12-21T20:25:55.771Z,9.32
2018-12-21T20:28:24.689Z,9.30
2018-12-21T20:30:54.144Z,9.25
2018-12-21T20:33:23.022Z,9.24
2018-12-21T20:35:52.005Z,9.24
2018-12-21T20:38:21.486Z,9.22
2018-12-21T20:40:50.813Z,9.20
2018-12-21T20:43:19.648Z,9.17
2018-12-21T20:45:48.611Z,9.11
2018-12-21T20:48:17.628Z,9.10
2018-12-21T20:50:46.543Z,9.10
2018-12-21T20:53:15.398Z,9.07
2018-12-21T20:55:44.378Z,9.01
2018-12-21T20:58:35.092Z,8.93
2018-12-21T21:01:04.098Z,8.91
2018-12-21T21:03:32.977Z,8.89
2018-12-21T21:06:02.124Z,8.89
2018-12-21T21:08:30.983Z,8.83
2018-12-21T21:11:00.292Z,8.83
2018-12-21T21:13:29.570Z,8.76
2018-12-21T21:15:58.538Z,8.80
2018-12-21T21:18:27.820Z,8.79
2018-12-21T21:20:56.686Z,8.79
2018-12-21T21:23:25.598Z,8.75
2018-12-21T21:25:54.563Z,8.73
2018-12-21T21:28:23.491Z,8.78
2018-12-21T21:30:52.368Z,8.70
2018-12-21T21:33:21.284Z,8.71
2018-12-21T21:35:50.207Z,8.69
2018-12-21T21:38:19.982Z,8.67
2018-12-21T21:40:49.409Z,8.64
2018-12-21T21:43:19.855Z,8.63
2018-12-21T21:45:48.747Z,8.61
2018-12-21T21:48:17.670Z,8.63
2018-12-21T21:50:47.328Z,8.59
2018-12-21T21:53:16.264Z,8.53
2018-12-21T21:55:45.151Z,8.57
2018-12-21T21:58:14.511Z,8.55
2018-12-21T22:00:43.749Z,8.54
2018-12-21T22:03:12.663Z,8.54
2018-12-21T22:05:41.651Z,8.56
2018-12-21T22:08:10.474Z,8.54
2018-12-21T22:10:39.425Z,8.44
2018-12-21T22:13:08.304Z,8.48
2018-12-21T22:15:37.414Z,8.48
2018-12-21T22:18:06.701Z,8.44
2018-12-21T22:20:35.625Z,8.39
2018-12-21T22:23:04.567Z,8.43
2018-12-21T22:25:33.522Z,8.39
2018-12-21T22:28:02.486Z,8.40
2018-12-21T22:30:31.775Z,8.39
2018-12-21T22:33:00.665Z,8.30
2018-12-21T22:35:29.666Z,8.23
2018-12-21T22:37:58.532Z,8.09
2018-12-21T22:40:27.623Z,8.01
2018-12-21T22:42:56.659Z,8.05
2018-12-21T22:45:25.543Z,8.02
2018-12-21T22:47:54.383Z,8.02
2018-12-21T22:50:23.322Z,7.97
2018-12-21T22:52:52.353Z,8.01
2018-12-21T22:55:21.443Z,7.90
2018-12-21T22:57:56.492Z,7.93
2018-12-21T23:00:25.157Z,7.90
2018-12-21T23:02:54.167Z,7.94
2018-12-21T23:05:24.227Z,7.93
2018-12-21T23:07:53.137Z,8.00
2018-12-21T23:10:22.094Z,7.93
2018-12-21T23:12:52.313Z,7.93
2018-12-21T23:15:21.325Z,7.91
2018-12-21T23:17:50.196Z,7.88
2018-12-21T23:20:19.178Z,7.90
2018-12-21T23:22:48.195Z,7.84
2018-12-21T23:25:17.237Z,7.79
2018-12-21T23:27:46.302Z,7.70
2018-12-21T23:30:15.248Z,7.74
2018-12-21T23:32:44.083Z,7.75
2018-12-21T23:35:13.084Z,7.71
2018-12-21T23:37:42.099Z,7.77
2018-12-21T23:40:11.229Z,7.79
2018-12-21T23:42:40.211Z,7.79
2018-12-21T23:45:09.106Z,7.73
2018-12-21T23:47:38.047Z,7.75
2018-12-21T23:50:07.340Z,7.70
2018-12-21T23:52:36.312Z,7.75
2018-12-21T23:55:06.330Z,7.78
2018-12-21T23:57:35.735Z,7.73
